sensor_id;sensor_type;location;lat;lon;timestamp;pressure;altitude;pressure_sealevel;temperature;humidity
34931;BME280;21134;49.646;8.560;2022-10-16T00:01:37;100376.16;;;15.68;100.00
34931;BME280;21134;49.646;8.560;2022-10-16T00:04:04;100382.31;;;15.61;100.00
34931;BME280;21134;49.646;8.560;2022-10-16T00:06:31;100381.50;;;15.58;100.00
34931;BME280;21134;49.646;8.560;2022-10-16T00:08:58;100382.50;;;15.53;100.00
34931;BME280;21134;49.646;8.560;2022-10-16T00:11:26;100384.28;;;15.49;100.00
34931;BME280;21134;49.646;8.560;2022-10-16T00:13:57;100371.41;;;15.49;100.00
34931;BME280;21134;49.646;8.560;2022-10-16T00:16:24;100367.13;;;15.48;100.00
34931;BME280;21134;49.646;8.560;2022-10-16T00:18:50;100376.63;;;15.46;100.00
34931;BME280;21134;49.646;8.560;2022-10-16T00:21:18;100383.53;;;15.46;100.00
34931;BME280;21134;49.646;8.560;2022-10-16T00:23:46;100384.41;;;15.45;100.00
34931;BME280;21134;49.646;8.560;2022-10-16T00:26:13;100383.59;;;15.43;100.00
34931;BME280;21134;49.646;8.560;2022-10-16T00:28:40;100381.00;;;15.43;100.00
34931;BME280;21134;49.646;8.560;2022-10-16T00:31:10;100386.22;;;15.41;100.00
34931;BME280;21134;49.646;8.560;2022-10-16T00:33:38;100375.91;;;15.41;100.00
34931;BME280;21134;49.646;8.560;2022-10-16T00:36:06;100378.56;;;15.38;100.00
34931;BME280;21134;49.646;8.560;2022-10-16T00:38:34;100374.25;;;15.37;100.00
34931;BME280;21134;49.646;8.560;2022-10-16T00:41:00;100385.47;;;15.34;100.00
34931;BME280;21134;49.646;8.560;2022-10-16T00:43:36;100386.38;;;15.33;100.00
34931;BME280;21134;49.646;8.560;2022-10-16T00:46:08;100392.34;;;15.35;100.00
34931;BME280;21134;49.646;8.560;2022-10-16T00:48:38;100376.00;;;15.37;100.00
34931;BME280;21134;49.646;8.560;2022-10-16T00:51:05;100379.47;;;15.35;100.00
34931;BME280;21134;49.646;8.560;2022-10-16T00:53:33;100376.00;;;15.37;100.00
34931;BME280;21134;49.646;8.560;2022-10-16T00:56:01;100384.56;;;15.37;100.00
34931;BME280;21134;49.646;8.560;2022-10-16T00:58:28;100390.56;;;15.38;100.00
34931;BME280;21134;49.646;8.560;2022-10-16T01:00:55;100388.88;;;15.38;100.00
34931;BME280;21134;49.646;8.560;2022-10-16T01:03:24;100394.03;;;15.38;100.00
34931;BME280;21134;49.646;8.560;2022-10-16T01:05:58;100384.53;;;15.39;100.00
34931;BME280;21134;49.646;8.560;2022-10-16T01:08:30;100375.97;;;15.38;100.00
34931;BME280;21134;49.646;8.560;2022-10-16T01:11:05;100390.53;;;15.39;100.00
34931;BME280;21134;49.646;8.560;2022-10-16T01:13:40;100399.13;;;15.40;100.00
34931;BME280;21134;49.646;8.560;2022-10-16T01:16:13;100408.53;;;15.41;100.00
34931;BME280;21134;49.646;8.560;2022-10-16T01:18:44;100402.47;;;15.43;100.00
34931;BME280;21134;49.646;8.560;2022-10-16T01:21:16;100411.94;;;15.43;100.00
34931;BME280;21134;49.646;8.560;2022-10-16T01:23:54;100411.09;;;15.42;100.00
34931;BME280;21134;49.646;8.560;2022-10-16T01:26:36;100403.38;;;15.42;100.00
34931;BME280;21134;49.646;8.560;2022-10-16T01:29:11;100399.91;;;15.43;100.00
34931;BME280;21134;49.646;8.560;2022-10-16T01:31:40;100391.31;;;15.43;100.00
34931;BME280;21134;49.646;8.560;2022-10-16T01:34:15;100400.78;;;15.42;100.00
34931;BME280;21134;49.646;8.560;2022-10-16T01:36:47;100401.63;;;15.43;100.00
34931;BME280;21134;49.646;8.560;2022-10-16T01:39:21;100401.63;;;15.43;100.00
34931;BME280;21134;49.646;8.560;2022-10-16T01:41:54;100401.63;;;15.43;100.00
34931;BME280;21134;49.646;8.560;2022-10-16T01:44:26;100411.09;;;15.42;100.00
34931;BME280;21134;49.646;8.560;2022-10-16T01:46:55;100419.69;;;15.43;100.00
34931;BME280;21134;49.646;8.560;2022-10-16T01:49:24;100425.66;;;15.45;100.00
34931;BME280;21134;49.646;8.560;2022-10-16T01:51:55;100425.66;;;15.45;100.00
34931;BME280;21134;49.646;8.560;2022-10-16T01:54:23;100429.09;;;15.45;100.00
34931;BME280;21134;49.646;8.560;2022-10-16T01:56:52;100421.34;;;15.45;100.00
34931;BME280;21134;49.646;8.560;2022-10-16T01:59:23;100396.41;;;15.46;100.00
34931;BME280;21134;49.646;8.560;2022-10-16T02:01:52;100394.75;;;15.43;100.00
34931;BME280;21134;49.646;8.560;2022-10-16T02:04:24;100396.47;;;15.43;100.00
34931;BME280;21134;49.646;8.560;2022-10-16T02:06:53;100398.16;;;15.44;100.00
34931;BME280;21134;49.646;8.560;2022-10-16T02:09:20;100402.53;;;15.42;100.00
34931;BME280;21134;49.646;8.560;2022-10-16T02:11:47;100399.97;;;15.40;100.00
34931;BME280;21134;49.646;8.560;2022-10-16T02:14:15;100393.97;;;15.40;100.00
34931;BME280;21134;49.646;8.560;2022-10-16T02:16:44;100390.50;;;15.41;100.00
34931;BME280;21134;49.646;8.560;2022-10-16T02:19:12;100387.91;;;15.41;100.00
34931;BME280;21134;49.646;8.560;2022-10-16T02:21:42;100386.22;;;15.40;100.00
34931;BME280;21134;49.646;8.560;2022-10-16T02:24:14;100385.38;;;15.39;100.00
34931;BME280;21134;49.646;8.560;2022-10-16T02:26:49;100391.38;;;15.40;100.00
34931;BME280;21134;49.646;8.560;2022-10-16T02:29:22;100397.44;;;15.39;100.00
34931;BME280;21134;49.646;8.560;2022-10-16T02:31:54;100397.44;;;15.39;100.00
34931;BME280;21134;49.646;8.560;2022-10-16T02:34:24;100399.19;;;15.38;100.00
34931;BME280;21134;49.646;8.560;2022-10-16T02:36:53;100408.59;;;15.39;100.00
34931;BME280;21134;49.646;8.560;2022-10-16T02:39:21;100395.66;;;15.41;100.00
34931;BME280;21134;49.646;8.560;2022-10-16T02:41:47;100396.47;;;15.43;100.00
34931;BME280;21134;49.646;8.560;2022-10-16T02:44:14;100405.94;;;15.42;100.00
34931;BME280;21134;49.646;8.560;2022-10-16T02:46:40;100409.41;;;15.41;100.00
34931;BME280;21134;49.646;8.560;2022-10-16T02:49:08;100400.75;;;15.44;100.00
34931;BME280;21134;49.646;8.560;2022-10-16T02:51:35;100405.03;;;15.45;100.00
34931;BME280;21134;49.646;8.560;2022-10-16T02:54:01;100403.31;;;15.45;100.00
34931;BME280;21134;49.646;8.560;2022-10-16T02:56:28;100404.09;;;15.49;100.00
34931;BME280;21134;49.646;8.560;2022-10-16T02:58:55;100406.69;;;15.47;100.00
34931;BME280;21134;49.646;8.560;2022-10-16T03:01:22;100416.19;;;15.45;100.00
34931;BME280;21134;49.646;8.560;2022-10-16T03:03:48;100425.66;;;15.45;100.00
34931;BME280;21134;49.646;8.560;2022-10-16T03:06:16;100415.34;;;15.45;100.00
34931;BME280;21134;49.646;8.560;2022-10-16T03:08:43;100408.47;;;15.45;100.00
34931;BME280;21134;49.646;8.560;2022-10-16T03:11:09;100405.03;;;15.45;100.00
34931;BME280;21134;49.646;8.560;2022-10-16T03:13:36;100405.91;;;15.44;100.00
34931;BME280;21134;49.646;8.560;2022-10-16T03:16:02;100416.19;;;15.45;100.00
34931;BME280;21134;49.646;8.560;2022-10-16T03:18:29;100413.63;;;15.44;100.00
34931;BME280;21134;49.646;8.560;2022-10-16T03:20:55;100415.38;;;15.43;100.00
34931;BME280;21134;49.646;8.560;2022-10-16T03:23:23;100420.53;;;15.43;100.00
34931;BME280;21134;49.646;8.560;2022-10-16T03:25:49;100417.09;;;15.43;100.00
34931;BME280;21134;49.646;8.560;2022-10-16T03:28:16;100415.41;;;15.42;100.00
34931;BME280;21134;49.646;8.560;2022-10-16T03:30:42;100425.72;;;15.42;100.00
34931;BME280;21134;49.646;8.560;2022-10-16T03:33:09;100429.09;;;15.45;100.00
34931;BME280;21134;49.646;8.560;2022-10-16T03:35:35;100426.53;;;15.44;100.00
34931;BME280;21134;49.646;8.560;2022-10-16T03:38:02;100424.84;;;15.43;100.00
34931;BME280;21134;49.646;8.560;2022-10-16T03:40:30;100424.00;;;15.42;100.00
34931;BME280;21134;49.646;8.560;2022-10-16T03:42:57;100423.16;;;15.42;100.00
34931;BME280;21134;49.646;8.560;2022-10-16T03:45:23;100438.63;;;15.42;100.00
34931;BME280;21134;49.646;8.560;2022-10-16T03:47:50;100438.63;;;15.42;100.00
34931;BME280;21134;49.646;8.560;2022-10-16T03:50:16;100436.88;;;15.42;100.00
34931;BME280;21134;49.646;8.560;2022-10-16T03:52:43;100440.34;;;15.41;100.00
34931;BME280;21134;49.646;8.560;2022-10-16T03:55:09;100437.78;;;15.41;100.00
34931;BME280;21134;49.646;8.560;2022-10-16T03:57:37;100439.50;;;15.41;100.00
34931;BME280;21134;49.646;8.560;2022-10-16T04:00:04;100446.38;;;15.40;100.00
34931;BME280;21134;49.646;8.560;2022-10-16T04:02:31;100445.53;;;15.40;100.00
34931;BME280;21134;49.646;8.560;2022-10-16T04:04:57;100439.53;;;15.39;100.00
34931;BME280;21134;49.646;8.560;2022-10-16T04:07:24;100442.97;;;15.40;100.00
34931;BME280;21134;49.646;8.560;2022-10-16T04:09:50;100439.53;;;15.39;100.00
34931;BME280;21134;49.646;8.560;2022-10-16T04:12:17;100450.75;;;15.38;100.00
34931;BME280;21134;49.646;8.560;2022-10-16T04:14:45;100453.31;;;15.38;100.00
34931;BME280;21134;49.646;8.560;2022-10-16T04:17:11;100448.16;;;15.38;100.00
34931;BME280;21134;49.646;8.560;2022-10-16T04:19:38;100430.97;;;15.37;100.00
34931;BME280;21134;49.646;8.560;2022-10-16T04:22:04;100436.13;;;15.37;100.00
34931;BME280;21134;49.646;8.560;2022-10-16T04:24:31;100443.91;;;15.35;100.00
34931;BME280;21134;49.646;8.560;2022-10-16T04:26:57;100450.81;;;15.35;100.00
34931;BME280;21134;49.646;8.560;2022-10-16T04:29:24;100455.13;;;15.33;100.00
34931;BME280;21134;49.646;8.560;2022-10-16T04:31:51;100440.56;;;15.32;100.00
34931;BME280;21134;49.646;8.560;2022-10-16T04:34:18;100436.25;;;15.31;100.00
34931;BME280;21134;49.646;8.560;2022-10-16T04:36:46;100438.00;;;15.30;100.00
34931;BME280;21134;49.646;8.560;2022-10-16T04:39:13;100444.94;;;15.28;100.00
34931;BME280;21134;49.646;8.560;2022-10-16T04:41:39;100454.41;;;15.26;100.00
34931;BME280;21134;49.646;8.560;2022-10-16T04:44:06;100455.25;;;15.27;100.00
34931;BME280;21134;49.646;8.560;2022-10-16T04:46:33;100461.25;;;15.29;100.00
34931;BME280;21134;49.646;8.560;2022-10-16T04:49:00;100467.19;;;15.31;100.00
34931;BME280;21134;49.646;8.560;2022-10-16T04:51:27;100456.09;;;15.27;100.00
34931;BME280;21134;49.646;8.560;2022-10-16T04:53:53;100445.84;;;15.26;100.00
34931;BME280;21134;49.646;8.560;2022-10-16T04:56:20;100451.84;;;15.25;100.00
34931;BME280;21134;49.646;8.560;2022-10-16T04:58:47;100450.22;;;15.22;100.00
34931;BME280;21134;49.646;8.560;2022-10-16T05:01:14;100452.81;;;15.21;100.00
34931;BME280;21134;49.646;8.560;2022-10-16T05:03:40;100454.59;;;15.17;100.00
34931;BME280;21134;49.646;8.560;2022-10-16T05:06:08;100436.63;;;15.14;100.00
34931;BME280;21134;49.646;8.560;2022-10-16T05:08:35;100430.75;;;15.07;100.00
34931;BME280;21134;49.646;8.560;2022-10-16T05:11:01;100441.13;;;15.04;100.00
34931;BME280;21134;49.646;8.560;2022-10-16T05:13:28;100436.84;;;15.03;100.00
34931;BME280;21134;49.646;8.560;2022-10-16T05:15:54;100434.28;;;15.02;100.00
34931;BME280;21134;49.646;8.560;2022-10-16T05:18:22;100436.00;;;15.03;100.00
34931;BME280;21134;49.646;8.560;2022-10-16T05:20:48;100432.56;;;15.02;100.00
34931;BME280;21134;49.646;8.560;2022-10-16T05:23:16;100430.84;;;15.03;100.00
34931;BME280;21134;49.646;8.560;2022-10-16T05:25:43;100442.81;;;15.05;100.00
34931;BME280;21134;49.646;8.560;2022-10-16T05:28:09;100442.00;;;15.03;100.00
34931;BME280;21134;49.646;8.560;2022-10-16T05:30:37;100433.34;;;15.06;100.00
34931;BME280;21134;49.646;8.560;2022-10-16T05:33:03;100429.06;;;15.06;100.00
34931;BME280;21134;49.646;8.560;2022-10-16T05:35:30;100435.97;;;15.04;100.00
34931;BME280;21134;49.646;8.560;2022-10-16T05:37:56;100443.63;;;15.07;100.00
34931;BME280;21134;49.646;8.560;2022-10-16T05:40:24;100453.09;;;15.07;100.00
34931;BME280;21134;49.646;8.560;2022-10-16T05:42:54;100455.69;;;15.05;100.00
34931;BME280;21134;49.646;8.560;2022-10-16T05:45:21;100472.00;;;15.06;100.00
34931;BME280;21134;49.646;8.560;2022-10-16T05:47:47;100472.00;;;15.06;100.00
34931;BME280;21134;49.646;8.560;2022-10-16T05:50:14;100470.28;;;15.06;100.00
34931;BME280;21134;49.646;8.560;2022-10-16T05:52:40;100470.31;;;15.05;100.00
34931;BME280;21134;49.646;8.560;2022-10-16T05:55:07;100472.94;;;15.03;100.00
34931;BME280;21134;49.646;8.560;2022-10-16T05:57:35;100480.66;;;15.02;100.00
34931;BME280;21134;49.646;8.560;2022-10-16T06:00:03;100482.44;;;15.00;100.00
34931;BME280;21134;49.646;8.560;2022-10-16T06:02:29;100491.88;;;15.01;100.00
34931;BME280;21134;49.646;8.560;2022-10-16T06:04:56;100489.25;;;15.02;100.00
34931;BME280;21134;49.646;8.560;2022-10-16T06:07:23;100480.66;;;15.02;100.00
34931;BME280;21134;49.646;8.560;2022-10-16T06:09:49;100494.41;;;15.02;100.00
34931;BME280;21134;49.646;8.560;2022-10-16T06:12:16;100503.84;;;15.03;100.00
34931;BME280;21134;49.646;8.560;2022-10-16T06:14:44;100510.75;;;15.03;100.00
34931;BME280;21134;49.646;8.560;2022-10-16T06:17:12;100519.31;;;15.03;100.00
34931;BME280;21134;49.646;8.560;2022-10-16T06:19:38;100517.59;;;15.04;100.00
34931;BME280;21134;49.646;8.560;2022-10-16T06:22:04;100521.84;;;15.05;100.00
34931;BME280;21134;49.646;8.560;2022-10-16T06:24:31;100523.53;;;15.06;100.00
34931;BME280;21134;49.646;8.560;2022-10-16T06:26:57;100526.13;;;15.06;100.00
34931;BME280;21134;49.646;8.560;2022-10-16T06:29:24;100530.38;;;15.08;100.00
34931;BME280;21134;49.646;8.560;2022-10-16T06:31:52;100522.63;;;15.10;100.00
34931;BME280;21134;49.646;8.560;2022-10-16T06:34:18;100526.88;;;15.11;100.00
34931;BME280;21134;49.646;8.560;2022-10-16T06:36:45;100510.53;;;15.12;100.00
34931;BME280;21134;49.646;8.560;2022-10-16T06:39:11;100518.25;;;15.14;100.00
34931;BME280;21134;49.646;8.560;2022-10-16T06:41:38;100524.25;;;15.16;100.00
34931;BME280;21134;49.646;8.560;2022-10-16T06:44:05;100525.94;;;15.17;100.00
34931;BME280;21134;49.646;8.560;2022-10-16T06:46:33;100537.94;;;15.18;100.00
34931;BME280;21134;49.646;8.560;2022-10-16T06:49:01;100552.50;;;15.20;100.00
34931;BME280;21134;49.646;8.560;2022-10-16T06:51:27;100546.44;;;15.21;100.00
34931;BME280;21134;49.646;8.560;2022-10-16T06:53:55;100541.28;;;15.23;100.00
34931;BME280;21134;49.646;8.560;2022-10-16T06:56:24;100543.75;;;15.27;100.00
34931;BME280;21134;49.646;8.560;2022-10-16T06:58:51;100541.09;;;15.32;100.00
34931;BME280;21134;49.646;8.560;2022-10-16T07:01:20;100546.16;;;15.37;100.00
34931;BME280;21134;49.646;8.560;2022-10-16T07:03:46;100549.56;;;15.39;100.00
34931;BME280;21134;49.646;8.560;2022-10-16T07:06:16;100537.44;;;15.42;100.00
34931;BME280;21134;49.646;8.560;2022-10-16T07:08:44;100539.97;;;15.44;100.00
34931;BME280;21134;49.646;8.560;2022-10-16T07:11:13;100556.31;;;15.44;100.00
34931;BME280;21134;49.646;8.560;2022-10-16T07:13:41;100554.59;;;15.45;100.00
34931;BME280;21134;49.646;8.560;2022-10-16T07:16:11;100559.72;;;15.46;100.00
34931;BME280;21134;49.646;8.560;2022-10-16T07:18:38;100557.13;;;15.46;100.00
34931;BME280;21134;49.646;8.560;2022-10-16T07:21:05;100576.00;;;15.48;100.00
34931;BME280;21134;49.646;8.560;2022-10-16T07:23:34;100567.38;;;15.49;100.00
34931;BME280;21134;49.646;8.560;2022-10-16T07:26:00;100575.97;;;15.50;100.00
34931;BME280;21134;49.646;8.560;2022-10-16T07:28:27;100585.38;;;15.52;100.00
34931;BME280;21134;49.646;8.560;2022-10-16T07:30:54;100587.00;;;15.58;100.00
34931;BME280;21134;49.646;8.560;2022-10-16T07:33:20;100585.19;;;15.62;100.00
34931;BME280;21134;49.646;8.560;2022-10-16T07:35:48;100588.53;;;15.68;100.00
34931;BME280;21134;49.646;8.560;2022-10-16T07:38:15;100590.22;;;15.71;100.00
34931;BME280;21134;49.646;8.560;2022-10-16T07:40:42;100594.47;;;15.73;100.00
34931;BME280;21134;49.646;8.560;2022-10-16T07:43:09;100586.66;;;15.75;100.00
34931;BME280;21134;49.646;8.560;2022-10-16T07:45:35;100591.00;;;15.74;100.00
34931;BME280;21134;49.646;8.560;2022-10-16T07:48:02;100590.09;;;15.77;100.00
34931;BME280;21134;49.646;8.560;2022-10-16T07:50:29;100597.72;;;15.81;100.00
34931;BME280;21134;49.646;8.560;2022-10-16T07:52:55;100596.03;;;15.79;100.00
34931;BME280;21134;49.646;8.560;2022-10-16T07:55:22;100603.78;;;15.79;100.00
34931;BME280;21134;49.646;8.560;2022-10-16T07:57:49;100605.50;;;15.78;100.00
34931;BME280;21134;49.646;8.560;2022-10-16T08:00:16;100596.91;;;15.79;100.00
34931;BME280;21134;49.646;8.560;2022-10-16T08:02:42;100598.44;;;15.88;100.00
34931;BME280;21134;49.646;8.560;2022-10-16T08:05:09;100609.63;;;15.87;100.00
34931;BME280;21134;49.646;8.560;2022-10-16T08:07:35;100611.19;;;15.94;100.00
34931;BME280;21134;49.646;8.560;2022-10-16T08:10:02;100626.53;;;16.02;100.00
34931;BME280;21134;49.646;8.560;2022-10-16T08:12:29;100633.34;;;16.06;100.00
34931;BME280;21134;49.646;8.560;2022-10-16T08:14:56;100635.91;;;16.06;100.00
34931;BME280;21134;49.646;8.560;2022-10-16T08:17:23;100631.53;;;16.10;100.00
34931;BME280;21134;49.646;8.560;2022-10-16T08:19:49;100628.88;;;16.13;100.00
34931;BME280;21134;49.646;8.560;2022-10-16T08:22:16;100632.38;;;16.10;100.00
34931;BME280;21134;49.646;8.560;2022-10-16T08:24:42;100635.06;;;16.06;100.00
34931;BME280;21134;49.646;8.560;2022-10-16T08:27:09;100637.72;;;16.02;100.00
34931;BME280;21134;49.646;8.560;2022-10-16T08:29:35;100652.31;;;16.03;100.00
34931;BME280;21134;49.646;8.560;2022-10-16T08:32:05;100656.63;;;16.03;100.00
34931;BME280;21134;49.646;8.560;2022-10-16T08:34:31;100666.16;;;15.99;100.00
34931;BME280;21134;49.646;8.560;2022-10-16T08:36:58;100675.66;;;15.97;100.00
34931;BME280;21134;49.646;8.560;2022-10-16T08:39:24;100692.06;;;15.95;100.00
34931;BME280;21134;49.646;8.560;2022-10-16T08:42:05;100712.75;;;15.92;100.00
34931;BME280;21134;49.646;8.560;2022-10-16T08:47:43;100726.38;;;15.98;100.00
34931;BME280;21134;49.646;8.560;2022-10-16T08:50:13;100725.72;;;15.90;100.00
34931;BME280;21134;49.646;8.560;2022-10-16T08:52:41;100713.47;;;15.98;100.00
34931;BME280;21134;49.646;8.560;2022-10-16T08:55:17;100699.97;;;15.86;100.00
34931;BME280;21134;49.646;8.560;2022-10-16T08:57:47;100707.88;;;15.78;100.00
34931;BME280;21134;49.646;8.560;2022-10-16T09:00:14;100708.75;;;15.77;100.00
34931;BME280;21134;49.646;8.560;2022-10-16T09:02:46;100715.59;;;15.78;100.00
34931;BME280;21134;49.646;8.560;2022-10-16T09:05:49;100728.44;;;15.83;100.00
34931;BME280;21134;49.646;8.560;2022-10-16T09:08:23;100729.19;;;15.89;100.00
34931;BME280;21134;49.646;8.560;2022-10-16T09:10:57;100735.00;;;15.99;100.00
34931;BME280;21134;49.646;8.560;2022-10-16T09:13:29;100737.53;;;16.02;100.00
34931;BME280;21134;49.646;8.560;2022-10-16T09:16:01;100729.72;;;16.05;100.00
34931;BME280;21134;49.646;8.560;2022-10-16T09:18:38;100755.47;;;16.08;100.00
34931;BME280;21134;49.646;8.560;2022-10-16T09:21:10;100748.53;;;16.12;100.00
34931;BME280;21134;49.646;8.560;2022-10-16T09:23:39;100745.94;;;16.12;100.00
34931;BME280;21134;49.646;8.560;2022-10-16T09:26:10;100735.69;;;16.09;100.00
34931;BME280;21134;49.646;8.560;2022-10-16T09:28:37;100736.47;;;16.11;100.00
34931;BME280;21134;49.646;8.560;2022-10-16T09:31:04;100744.09;;;16.17;100.00
34931;BME280;21134;49.646;8.560;2022-10-16T09:33:36;100742.19;;;16.26;100.00
34931;BME280;21134;49.646;8.560;2022-10-16T09:36:05;100734.31;;;16.33;100.00
34931;BME280;21134;49.646;8.560;2022-10-16T09:38:34;100732.50;;;16.38;100.00
34931;BME280;21134;49.646;8.560;2022-10-16T09:41:02;100734.94;;;16.44;100.00
34931;BME280;21134;49.646;8.560;2022-10-16T09:43:34;100732.25;;;16.48;100.00
34931;BME280;21134;49.646;8.560;2022-10-16T09:46:04;100731.22;;;16.56;100.00
34931;BME280;21134;49.646;8.560;2022-10-16T09:48:36;100739.69;;;16.64;100.00
34931;BME280;21134;49.646;8.560;2022-10-16T09:51:05;100743.88;;;16.68;100.00
34931;BME280;21134;49.646;8.560;2022-10-16T09:53:41;100751.50;;;16.74;100.00
34931;BME280;21134;49.646;8.560;2022-10-16T09:56:10;100740.22;;;16.80;100.00
34931;BME280;21134;49.646;8.560;2022-10-16T09:58:42;100736.50;;;16.91;100.00
34931;BME280;21134;49.646;8.560;2022-10-16T10:01:12;100739.59;;;17.07;100.00
34931;BME280;21134;49.646;8.560;2022-10-16T10:03:42;100737.78;;;17.11;100.00
34931;BME280;21134;49.646;8.560;2022-10-16T10:06:22;100745.47;;;17.14;100.00
34931;BME280;21134;49.646;8.560;2022-10-16T10:09:05;100748.91;;;17.14;100.00
34931;BME280;21134;49.646;8.560;2022-10-16T10:11:51;100748.91;;;17.13;100.00
34931;BME280;21134;49.646;8.560;2022-10-16T10:14:27;100746.19;;;17.19;100.00
34931;BME280;21134;49.646;8.560;2022-10-16T10:17:11;100752.06;;;17.26;100.00
34931;BME280;21134;49.646;8.560;2022-10-16T10:19:42;100751.97;;;17.30;100.00
34931;BME280;21134;49.646;8.560;2022-10-16T10:22:19;100755.09;;;17.43;100.00
34931;BME280;21134;49.646;8.560;2022-10-16T10:27:41;100760.00;;;17.88;100.00
34931;BME280;21134;49.646;8.560;2022-10-16T10:30:15;100751.47;;;17.84;100.00
34931;BME280;21134;49.646;8.560;2022-10-16T10:32:51;100755.63;;;17.90;100.00
34931;BME280;21134;49.646;8.560;2022-10-16T10:35:30;100752.81;;;17.98;100.00
34931;BME280;21134;49.646;8.560;2022-10-16T10:38:09;100755.19;;;18.05;100.00
34931;BME280;21134;49.646;8.560;2022-10-16T10:40:47;100750.75;;;18.10;100.00
34931;BME280;21134;49.646;8.560;2022-10-16T10:43:29;100753.88;;;18.22;100.00
34931;BME280;21134;49.646;8.560;2022-10-16T10:46:01;100753.66;;;18.29;100.00
34931;BME280;21134;49.646;8.560;2022-10-16T10:48:51;100757.44;;;18.47;100.00
34931;BME280;21134;49.646;8.560;2022-10-16T10:51:27;100749.31;;;18.59;100.00
34931;BME280;21134;49.646;8.560;2022-10-16T10:54:03;100748.38;;;18.62;100.00
34931;BME280;21134;49.646;8.560;2022-10-16T10:56:43;100736.03;;;18.70;100.00
34931;BME280;21134;49.646;8.560;2022-10-16T10:59:28;100735.09;;;18.73;100.00
34931;BME280;21134;49.646;8.560;2022-10-16T11:02:00;100734.28;;;18.71;100.00
34931;BME280;21134;49.646;8.560;2022-10-16T11:04:49;100734.13;;;18.77;100.00
34931;BME280;21134;49.646;8.560;2022-10-16T11:07:25;100731.25;;;18.86;100.00
34931;BME280;21134;49.646;8.560;2022-10-16T11:09:57;100737.94;;;18.93;100.00
34931;BME280;21134;49.646;8.560;2022-10-16T11:12:27;100742.03;;;19.00;100.00
34931;BME280;21134;49.646;8.560;2022-10-16T11:14:58;100736.47;;;19.11;100.00
34931;BME280;21134;49.646;8.560;2022-10-16T11:17:30;100738.84;;;19.19;100.00
34931;BME280;21134;49.646;8.560;2022-10-16T11:20:03;100740.31;;;19.27;100.00
34931;BME280;21134;49.646;8.560;2022-10-16T11:22:35;100741.69;;;19.38;100.00
34931;BME280;21134;49.646;8.560;2022-10-16T11:25:11;100742.44;;;19.41;100.00
34931;BME280;21134;49.646;8.560;2022-10-16T11:27:41;100736.28;;;19.44;100.00
34931;BME280;21134;49.646;8.560;2022-10-16T11:30:16;100737.25;;;19.41;100.00
34931;BME280;21134;49.646;8.560;2022-10-16T11:32:54;100737.66;;;19.54;100.00
34931;BME280;21134;49.646;8.560;2022-10-16T11:35:26;100744.13;;;19.69;100.00
34931;BME280;21134;49.646;8.560;2022-10-16T11:38:02;100735.03;;;19.81;98.95
34931;BME280;21134;49.646;8.560;2022-10-16T11:40:32;100736.47;;;19.89;98.27
34931;BME280;21134;49.646;8.560;2022-10-16T11:43:06;100740.78;;;20.14;97.57
34931;BME280;21134;49.646;8.560;2022-10-16T11:45:40;100733.53;;;20.46;97.23
34931;BME280;21134;49.646;8.560;2022-10-16T11:48:15;100734.19;;;20.74;94.17
34931;BME280;21134;49.646;8.560;2022-10-16T11:50:49;100741.22;;;20.72;92.78
34931;BME280;21134;49.646;8.560;2022-10-16T11:53:24;100739.66;;;20.90;93.24
34931;BME280;21134;49.646;8.560;2022-10-16T11:55:55;100740.97;;;21.00;91.55
34931;BME280;21134;49.646;8.560;2022-10-16T11:58:25;100732.19;;;21.03;91.25
34931;BME280;21134;49.646;8.560;2022-10-16T12:00:58;100721.97;;;20.98;90.53
34931;BME280;21134;49.646;8.560;2022-10-16T12:03:29;100726.25;;;20.99;89.50
34931;BME280;21134;49.646;8.560;2022-10-16T12:06:09;100725.13;;;20.84;91.04
34931;BME280;21134;49.646;8.560;2022-10-16T12:08:40;100726.28;;;20.77;90.83
34931;BME280;21134;49.646;8.560;2022-10-16T12:11:22;100730.84;;;20.71;91.78
34931;BME280;21134;49.646;8.560;2022-10-16T12:13:50;100727.63;;;20.64;92.13
34931;BME280;21134;49.646;8.560;2022-10-16T12:16:22;100730.56;;;20.56;92.22
34931;BME280;21134;49.646;8.560;2022-10-16T12:18:49;100737.94;;;20.67;92.53
34931;BME280;21134;49.646;8.560;2022-10-16T12:21:17;100733.41;;;20.72;92.17
34931;BME280;21134;49.646;8.560;2022-10-16T12:23:50;100733.56;;;20.67;91.48
34931;BME280;21134;49.646;8.560;2022-10-16T12:26:25;100737.28;;;20.62;91.63
34931;BME280;21134;49.646;8.560;2022-10-16T12:28:52;100733.16;;;20.56;91.66
34931;BME280;21134;49.646;8.560;2022-10-16T12:31:19;100726.38;;;20.52;91.66
34931;BME280;21134;49.646;8.560;2022-10-16T12:33:56;100722.28;;;20.45;91.02
34931;BME280;21134;49.646;8.560;2022-10-16T12:36:27;100728.50;;;20.41;91.79
34931;BME280;21134;49.646;8.560;2022-10-16T12:38:57;100730.19;;;20.42;92.18
34931;BME280;21134;49.646;8.560;2022-10-16T12:41:25;100731.09;;;20.41;91.73
34931;BME280;21134;49.646;8.560;2022-10-16T12:43:52;100721.88;;;20.32;92.78
34931;BME280;21134;49.646;8.560;2022-10-16T12:46:33;100724.69;;;20.28;92.89
34931;BME280;21134;49.646;8.560;2022-10-16T12:49:22;100730.22;;;20.18;91.87
34931;BME280;21134;49.646;8.560;2022-10-16T12:51:55;100728.56;;;20.16;93.57
34931;BME280;21134;49.646;8.560;2022-10-16T12:54:28;100727.69;;;20.17;92.90
34931;BME280;21134;49.646;8.560;2022-10-16T12:57:18;100728.19;;;20.27;93.49
34931;BME280;21134;49.646;8.560;2022-10-16T12:59:53;100725.13;;;20.39;92.20